Time;durP1;ratioP1;P1;durP2;ratioP2;P2;SDS_P1;SDS_P2;PMS_P1;PMS_P2;Temp;Humidity;BMP_temperature;BMP_pressure;BME280_temperature;BME280_humidity;BME280_pressure;Samples;Min_cycle;Max_cycle;Signal;HPM_P1;HPM_P2
2023/08/08 00:00:10;;;;;;;4.22;2.38;;;;;;;;;;5033912;28;20216;-44
2023/08/08 00:02:58;;;;;;;4.10;2.22;;;;;;;;;;5033634;28;20343;-42
2023/08/08 00:05:25;;;;;;;2.90;1.98;;;;;;;;;;5033680;28;20278;-42
2023/08/08 00:07:52;;;;;;;5.50;2.22;;;;;;;;;;5032434;28;20205;-44
2023/08/08 00:10:20;;;;;;;3.30;2.38;;;;;;;;;;5035601;28;20208;-42
2023/08/08 00:12:47;;;;;;;4.38;1.90;;;;;;;;;;5035580;28;20220;-42
2023/08/08 00:15:14;;;;;;;5.60;2.05;;;;;;;;;;5033528;28;20207;-42
2023/08/08 00:17:41;;;;;;;3.90;2.15;;;;;;;;;;5033425;28;20572;-42
2023/08/08 00:20:09;;;;;;;3.63;1.98;;;;;;;;;;5033388;28;20209;-41
2023/08/08 00:22:36;;;;;;;3.88;2.38;;;;;;;;;;5033320;28;20211;-42
2023/08/08 00:25:04;;;;;;;2.53;1.88;;;;;;;;;;5033690;28;20247;-42
2023/08/08 00:27:31;;;;;;;3.60;1.77;;;;;;;;;;5033407;28;20199;-41
2023/08/08 00:30:00;;;;;;;3.30;2.00;;;;;;;;;;5032138;28;20201;-41
2023/08/08 00:32:27;;;;;;;2.38;1.95;;;;;;;;;;5034267;28;20216;-41
2023/08/08 00:34:55;;;;;;;3.42;2.10;;;;;;;;;;5035052;28;20219;-41
2023/08/08 00:37:22;;;;;;;2.25;1.77;;;;;;;;;;5035345;28;20200;-41
2023/08/08 00:39:49;;;;;;;3.10;2.10;;;;;;;;;;5035215;28;20204;-41
2023/08/08 00:42:16;;;;;;;5.30;2.03;;;;;;;;;;5035318;28;20205;-42
2023/08/08 00:44:43;;;;;;;3.75;1.73;;;;;;;;;;5033737;28;20208;-41
2023/08/08 00:47:11;;;;;;;3.03;1.88;;;;;;;;;;5034753;28;20205;-41
2023/08/08 00:49:38;;;;;;;2.95;1.75;;;;;;;;;;5035079;28;20205;-41
2023/08/08 00:52:06;;;;;;;3.00;1.80;;;;;;;;;;5035077;28;20314;-41
2023/08/08 00:54:33;;;;;;;6.43;1.95;;;;;;;;;;5034816;28;20197;-42
2023/08/08 00:57:01;;;;;;;2.60;1.77;;;;;;;;;;5033554;28;20243;-42
2023/08/08 00:59:29;;;;;;;2.70;1.80;;;;;;;;;;5033534;28;20209;-41
2023/08/08 01:01:57;;;;;;;2.20;1.67;;;;;;;;;;5033420;28;20299;-41
2023/08/08 01:04:28;;;;;;;3.60;2.05;;;;;;;;;;5033771;28;20212;-41
2023/08/08 01:07:22;;;;;;;2.90;1.77;;;;;;;;;;5034818;28;20555;-41
2023/08/08 01:10:25;;;;;;;4.43;1.90;;;;;;;;;;5017220;28;20205;-43
2023/08/08 01:12:56;;;;;;;2.53;1.77;;;;;;;;;;4992790;28;20401;-41
2023/08/08 01:15:24;;;;;;;3.65;1.70;;;;;;;;;;4992947;28;20706;-41
2023/08/08 01:17:51;;;;;;;3.33;2.05;;;;;;;;;;4976774;28;20655;-41
2023/08/08 01:20:19;;;;;;;2.67;1.70;;;;;;;;;;4960607;28;20209;-41
2023/08/08 01:22:56;;;;;;;2.80;1.70;;;;;;;;;;4960661;28;20290;-41
2023/08/08 01:25:26;;;;;;;3.08;1.90;;;;;;;;;;4977193;28;20209;-41
2023/08/08 01:27:53;;;;;;;3.22;1.75;;;;;;;;;;4992669;28;20202;-41
2023/08/08 01:30:20;;;;;;;2.45;1.73;;;;;;;;;;4992561;28;20210;-41
2023/08/08 01:32:47;;;;;;;2.65;2.00;;;;;;;;;;4976261;28;20308;-41
2023/08/08 01:35:15;;;;;;;4.22;1.98;;;;;;;;;;4992457;28;20214;-41
2023/08/08 01:37:50;;;;;;;3.55;1.90;;;;;;;;;;4992524;28;20293;-41
2023/08/08 01:40:18;;;;;;;2.88;2.15;;;;;;;;;;4992511;28;20592;-41
2023/08/08 01:42:47;;;;;;;3.33;2.28;;;;;;;;;;4976517;28;20210;-41
2023/08/08 01:45:17;;;;;;;3.42;2.33;;;;;;;;;;4976390;28;20202;-41
2023/08/08 01:47:51;;;;;;;3.65;2.15;;;;;;;;;;4976097;28;20233;-43
2023/08/08 01:50:18;;;;;;;2.72;2.00;;;;;;;;;;5026600;28;20390;-41
2023/08/08 01:52:45;;;;;;;2.50;1.90;;;;;;;;;;5033700;28;20239;-41
2023/08/08 01:55:13;;;;;;;2.92;2.08;;;;;;;;;;5034062;28;20205;-41
2023/08/08 01:57:40;;;;;;;3.95;2.20;;;;;;;;;;5033615;28;20554;-41
2023/08/08 02:00:08;;;;;;;2.53;1.90;;;;;;;;;;5032363;28;20569;-41
2023/08/08 02:02:43;;;;;;;2.60;2.10;;;;;;;;;;5033841;28;20200;-41
2023/08/08 02:05:11;;;;;;;2.72;2.22;;;;;;;;;;5033699;28;20247;-41
2023/08/08 02:07:38;;;;;;;2.40;1.90;;;;;;;;;;5033851;28;20211;-41
2023/08/08 02:10:06;;;;;;;3.63;2.15;;;;;;;;;;5033563;28;20208;-41
2023/08/08 02:12:33;;;;;;;6.25;2.22;;;;;;;;;;5032036;28;20221;-41
2023/08/08 02:15:01;;;;;;;4.00;2.45;;;;;;;;;;5032174;28;20258;-41
2023/08/08 02:17:29;;;;;;;2.72;2.20;;;;;;;;;;5033639;28;20197;-41
2023/08/08 02:19:56;;;;;;;4.30;2.05;;;;;;;;;;5033593;28;20208;-41
2023/08/08 02:22:25;;;;;;;3.15;2.03;;;;;;;;;;5033345;28;20225;-42
2023/08/08 02:24:52;;;;;;;3.75;1.95;;;;;;;;;;5033218;28;20209;-41
2023/08/08 02:27:19;;;;;;;3.50;2.13;;;;;;;;;;5031916;28;20291;-41
2023/08/08 02:29:46;;;;;;;3.95;2.35;;;;;;;;;;5033513;28;20208;-41
2023/08/08 02:32:14;;;;;;;3.42;2.42;;;;;;;;;;5036706;28;20251;-41
2023/08/08 02:34:42;;;;;;;6.57;2.33;;;;;;;;;;5036005;28;20231;-42
2023/08/08 02:37:09;;;;;;;3.25;2.17;;;;;;;;;;5037066;28;20669;-41
2023/08/08 02:39:36;;;;;;;3.10;2.10;;;;;;;;;;5037254;28;20605;-42
2023/08/08 02:42:03;;;;;;;4.60;2.20;;;;;;;;;;5037212;28;20239;-41
2023/08/08 02:44:31;;;;;;;5.53;2.53;;;;;;;;;;5035655;28;20204;-41
2023/08/08 02:46:58;;;;;;;2.78;2.05;;;;;;;;;;5036052;28;20205;-43
2023/08/08 02:49:26;;;;;;;7.88;2.60;;;;;;;;;;5035805;28;20208;-42
2023/08/08 02:51:53;;;;;;;3.25;2.30;;;;;;;;;;5035769;28;20224;-41
2023/08/08 02:54:21;;;;;;;5.43;1.90;;;;;;;;;;5035550;28;20204;-42
2023/08/08 02:56:48;;;;;;;6.20;2.00;;;;;;;;;;5036993;28;20229;-42
2023/08/08 02:59:17;;;;;;;3.75;2.00;;;;;;;;;;5035432;28;20212;-41
2023/08/08 03:01:45;;;;;;;3.40;1.75;;;;;;;;;;5035384;28;20208;-42
2023/08/08 03:04:16;;;;;;;5.80;2.00;;;;;;;;;;5035415;28;20589;-42
2023/08/08 03:06:44;;;;;;;3.63;1.80;;;;;;;;;;5036313;28;20244;-42
2023/08/08 03:09:14;;;;;;;1.88;1.60;;;;;;;;;;5035560;28;20200;-41
2023/08/08 03:11:41;;;;;;;5.78;1.67;;;;;;;;;;5035179;28;20205;-42
2023/08/08 03:14:12;;;;;;;2.45;1.73;;;;;;;;;;5035459;28;20254;-41
2023/08/08 03:16:39;;;;;;;4.75;2.00;;;;;;;;;;5036330;28;20680;-41
2023/08/08 03:19:08;;;;;;;7.20;2.08;;;;;;;;;;5035376;28;20200;-41
2023/08/08 03:21:37;;;;;;;8.40;1.85;;;;;;;;;;5035308;28;20205;-42
2023/08/08 03:24:05;;;;;;;2.80;1.75;;;;;;;;;;5035267;28;20208;-41
2023/08/08 03:26:32;;;;;;;3.70;1.92;;;;;;;;;;5035157;28;20196;-41
2023/08/08 03:28:59;;;;;;;3.00;1.83;;;;;;;;;;5036138;28;20251;-41
2023/08/08 03:31:37;;;;;;;4.25;1.70;;;;;;;;;;5033672;28;20677;-41
2023/08/08 03:34:04;;;;;;;5.25;1.55;;;;;;;;;;5034045;28;20701;-42
2023/08/08 03:36:33;;;;;;;4.20;2.38;;;;;;;;;;5032643;28;20211;-41
2023/08/08 03:39:02;;;;;;;3.50;2.03;;;;;;;;;;5034174;28;20218;-42
2023/08/08 03:41:30;;;;;;;3.40;2.00;;;;;;;;;;5054229;28;20199;-42
2023/08/08 03:43:57;;;;;;;4.90;2.38;;;;;;;;;;5034526;28;20207;-43
2023/08/08 03:46:25;;;;;;;2.70;1.90;;;;;;;;;;5034254;28;20201;-42
2023/08/08 03:48:52;;;;;;;4.10;1.60;;;;;;;;;;5034462;28;20201;-42
2023/08/08 03:51:20;;;;;;;3.88;1.65;;;;;;;;;;5066201;28;20196;-41
2023/08/08 03:53:48;;;;;;;6.70;1.90;;;;;;;;;;5031679;28;20592;-41
2023/08/08 03:56:15;;;;;;;4.70;1.85;;;;;;;;;;5034030;28;20205;-41
2023/08/08 03:58:43;;;;;;;3.70;2.20;;;;;;;;;;5034505;28;20200;-41
2023/08/08 04:01:10;;;;;;;4.60;1.95;;;;;;;;;;5035796;28;20286;-41
2023/08/08 04:03:37;;;;;;;3.95;2.08;;;;;;;;;;5034774;28;20306;-40
2023/08/08 04:06:04;;;;;;;4.78;1.92;;;;;;;;;;5035556;28;20245;-41
2023/08/08 04:08:33;;;;;;;3.55;2.13;;;;;;;;;;5029779;28;20251;-40
2023/08/08 04:11:00;;;;;;;3.00;2.13;;;;;;;;;;5033723;28;20732;-40
2023/08/08 04:13:28;;;;;;;5.82;2.10;;;;;;;;;;5032938;28;20600;-41
2023/08/08 04:15:55;;;;;;;3.00;2.00;;;;;;;;;;5034657;28;20585;-40
2023/08/08 04:18:23;;;;;;;8.48;2.05;;;;;;;;;;5021811;28;20690;-41
2023/08/08 04:20:50;;;;;;;3.70;1.75;;;;;;;;;;5035045;28;20224;-40
2023/08/08 04:23:17;;;;;;;5.13;1.73;;;;;;;;;;5033975;28;20625;-42
2023/08/08 04:25:44;;;;;;;3.90;2.15;;;;;;;;;;5034769;28;20589;-41
2023/08/08 04:28:12;;;;;;;5.30;1.85;;;;;;;;;;5033102;28;20221;-43
2023/08/08 04:30:39;;;;;;;2.17;1.60;;;;;;;;;;5033718;28;20223;-44
2023/08/08 04:33:06;;;;;;;2.95;1.30;;;;;;;;;;5033413;28;20243;-42
2023/08/08 04:35:33;;;;;;;4.78;1.38;;;;;;;;;;5033545;28;20274;-42
2023/08/08 04:38:00;;;;;;;2.67;1.40;;;;;;;;;;5031116;28;20228;-41
2023/08/08 04:40:28;;;;;;;5.63;1.83;;;;;;;;;;5033553;28;20229;-42
2023/08/08 04:42:55;;;;;;;2.85;1.63;;;;;;;;;;5033575;28;20217;-42
2023/08/08 04:45:22;;;;;;;4.07;1.65;;;;;;;;;;5033838;28;20247;-41
2023/08/08 04:47:49;;;;;;;5.63;1.38;;;;;;;;;;5033714;28;20274;-43
2023/08/08 04:50:17;;;;;;;3.17;1.70;;;;;;;;;;5031292;28;20229;-42
2023/08/08 04:52:44;;;;;;;4.47;1.92;;;;;;;;;;5033400;28;20302;-41
2023/08/08 04:55:11;;;;;;;3.13;1.30;;;;;;;;;;5031996;28;20239;-44
2023/08/08 04:57:39;;;;;;;2.50;1.45;;;;;;;;;;5031563;28;20227;-42
2023/08/08 05:00:08;;;;;;;3.40;1.40;;;;;;;;;;5032976;28;20189;-44
2023/08/08 05:02:35;;;;;;;1.45;1.08;;;;;;;;;;5031687;28;20197;-43
2023/08/08 05:05:03;;;;;;;2.78;1.30;;;;;;;;;;5032700;28;20228;-43
2023/08/08 05:07:30;;;;;;;4.25;1.35;;;;;;;;;;5033038;28;20295;-43
2023/08/08 05:09:58;;;;;;;2.50;1.08;;;;;;;;;;5033109;28;20254;-42
2023/08/08 05:12:25;;;;;;;4.65;1.30;;;;;;;;;;5029437;28;20213;-42
2023/08/08 05:14:54;;;;;;;2.97;1.27;;;;;;;;;;5032643;28;20228;-42
2023/08/08 05:17:21;;;;;;;2.65;1.00;;;;;;;;;;5032689;28;20239;-41
2023/08/08 05:19:49;;;;;;;3.38;1.20;;;;;;;;;;5033236;28;20229;-42
2023/08/08 05:22:16;;;;;;;5.30;1.25;;;;;;;;;;5033196;28;20307;-41
2023/08/08 05:24:43;;;;;;;2.95;1.10;;;;;;;;;;5033097;28;20274;-42
2023/08/08 05:27:11;;;;;;;2.70;1.05;;;;;;;;;;5032982;28;20720;-41
2023/08/08 05:29:39;;;;;;;3.92;1.10;;;;;;;;;;5033200;28;20625;-42
2023/08/08 05:32:07;;;;;;;3.50;1.23;;;;;;;;;;5033394;28;20224;-41
2023/08/08 05:34:34;;;;;;;3.72;1.20;;;;;;;;;;5033692;28;20240;-42
2023/08/08 05:37:02;;;;;;;5.65;1.13;;;;;;;;;;5032923;28;20303;-41
2023/08/08 05:39:43;;;;;;;2.05;1.00;;;;;;;;;;5033340;28;20282;-42
2023/08/08 05:42:10;;;;;;;1.75;1.02;;;;;;;;;;5032702;28;20225;-42
2023/08/08 05:44:37;;;;;;;4.40;1.33;;;;;;;;;;5032885;28;20225;-43
2023/08/08 05:47:05;;;;;;;3.45;1.20;;;;;;;;;;5032875;28;20583;-41
2023/08/08 05:49:32;;;;;;;3.22;0.90;;;;;;;;;;5032966;28;20240;-43
2023/08/08 05:51:59;;;;;;;2.08;1.23;;;;;;;;;;5032780;28;20228;-42
2023/08/08 05:54:28;;;;;;;2.45;0.75;;;;;;;;;;5031913;28;20236;-41
2023/08/08 05:56:55;;;;;;;3.33;1.00;;;;;;;;;;5030884;28;20225;-42
2023/08/08 05:59:22;;;;;;;2.45;1.30;;;;;;;;;;5031349;28;20221;-42
2023/08/08 06:01:49;;;;;;;3.15;0.90;;;;;;;;;;5031950;28;20249;-44
2023/08/08 06:04:17;;;;;;;4.80;1.10;;;;;;;;;;5030206;28;20236;-41
2023/08/08 06:06:44;;;;;;;4.90;1.02;;;;;;;;;;5031654;28;20705;-41
2023/08/08 06:09:12;;;;;;;1.65;0.90;;;;;;;;;;5032207;28;20274;-43
2023/08/08 06:11:39;;;;;;;4.15;1.02;;;;;;;;;;5031699;28;20735;-42
2023/08/08 06:14:06;;;;;;;4.68;0.93;;;;;;;;;;5032130;28;20697;-42
2023/08/08 06:16:33;;;;;;;2.30;1.20;;;;;;;;;;5031205;28;20717;-42
2023/08/08 06:19:00;;;;;;;4.63;1.13;;;;;;;;;;5031671;28;20239;-41
2023/08/08 06:21:27;;;;;;;4.38;1.25;;;;;;;;;;5031580;28;20228;-44
2023/08/08 06:23:55;;;;;;;2.78;1.13;;;;;;;;;;5030292;28;20228;-43
2023/08/08 06:26:23;;;;;;;7.55;0.93;;;;;;;;;;5030475;28;20229;-41
2023/08/08 06:28:51;;;;;;;3.03;1.00;;;;;;;;;;5030048;28;20224;-42
2023/08/08 06:31:19;;;;;;;2.03;1.20;;;;;;;;;;5031139;28;20627;-42
2023/08/08 06:33:46;;;;;;;3.03;1.08;;;;;;;;;;5031764;28;20705;-41
2023/08/08 06:36:14;;;;;;;3.05;1.10;;;;;;;;;;5031766;28;20243;-41
2023/08/08 06:38:42;;;;;;;1.75;1.00;;;;;;;;;;5032058;28;20697;-42
2023/08/08 06:41:09;;;;;;;2.95;1.23;;;;;;;;;;5031619;28;20651;-42
2023/08/08 06:43:37;;;;;;;0.95;0.77;;;;;;;;;;5031510;28;20240;-42
2023/08/08 06:46:04;;;;;;;1.90;0.80;;;;;;;;;;5032687;28;20208;-42
2023/08/08 06:48:32;;;;;;;1.50;0.93;;;;;;;;;;5033206;28;20205;-41
2023/08/08 06:50:59;;;;;;;1.90;0.88;;;;;;;;;;5033177;28;20666;-41
2023/08/08 06:53:26;;;;;;;1.75;0.70;;;;;;;;;;5033277;28;20267;-42
2023/08/08 06:55:53;;;;;;;3.35;1.00;;;;;;;;;;5031873;28;20701;-42
2023/08/08 06:58:20;;;;;;;4.53;0.82;;;;;;;;;;5033066;28;20204;-44
2023/08/08 07:00:47;;;;;;;4.18;1.10;;;;;;;;;;5033206;28;20209;-42
2023/08/08 07:03:15;;;;;;;2.83;0.90;;;;;;;;;;5032960;28;20215;-41
2023/08/08 07:05:42;;;;;;;5.35;0.90;;;;;;;;;;5032881;28;20236;-41
2023/08/08 07:08:09;;;;;;;3.45;1.10;;;;;;;;;;5032888;28;20669;-42
2023/08/08 07:10:36;;;;;;;1.55;0.90;;;;;;;;;;5032866;28;20207;-41
2023/08/08 07:13:04;;;;;;;3.45;1.08;;;;;;;;;;5033016;28;20259;-41
2023/08/08 07:15:31;;;;;;;5.88;1.00;;;;;;;;;;5033045;28;20201;-41
2023/08/08 07:17:59;;;;;;;3.33;1.20;;;;;;;;;;5035948;28;20657;-41
2023/08/08 07:20:26;;;;;;;4.10;1.00;;;;;;;;;;5036536;28;20258;-41
2023/08/08 07:22:54;;;;;;;4.53;0.90;;;;;;;;;;5036584;28;20220;-41
2023/08/08 07:25:21;;;;;;;1.52;0.93;;;;;;;;;;5036387;28;20243;-41
2023/08/08 07:27:48;;;;;;;3.15;0.80;;;;;;;;;;5036593;28;20212;-41
2023/08/08 07:30:15;;;;;;;4.30;1.27;;;;;;;;;;5036573;28;20616;-41
2023/08/08 07:32:43;;;;;;;2.53;1.30;;;;;;;;;;5028626;28;20728;-41
2023/08/08 07:35:10;;;;;;;3.15;1.00;;;;;;;;;;5035949;28;20693;-42
2023/08/08 07:37:38;;;;;;;4.38;1.00;;;;;;;;;;5035160;28;20240;-41
2023/08/08 07:40:19;;;;;;;0.90;0.60;;;;;;;;;;5035803;28;20244;-42
2023/08/08 07:42:48;;;;;;;3.67;1.15;;;;;;;;;;5035052;28;20227;-41
2023/08/08 07:45:15;;;;;;;1.73;0.70;;;;;;;;;;5035742;28;20229;-41
2023/08/08 07:47:43;;;;;;;1.33;0.80;;;;;;;;;;5034586;28;20231;-41
2023/08/08 07:50:11;;;;;;;3.15;1.17;;;;;;;;;;5035351;28;20709;-41
2023/08/08 07:52:40;;;;;;;2.13;0.82;;;;;;;;;;5035029;28;20227;-42
2023/08/08 07:55:08;;;;;;;1.70;0.88;;;;;;;;;;5035426;28;20244;-42
2023/08/08 07:57:35;;;;;;;2.53;0.98;;;;;;;;;;5034779;28;20224;-41
2023/08/08 08:00:22;;;;;;;2.08;1.08;;;;;;;;;;5034907;28;20292;-43
2023/08/08 08:02:49;;;;;;;4.10;0.90;;;;;;;;;;5032839;28;20259;-42
2023/08/08 08:05:16;;;;;;;5.10;0.93;;;;;;;;;;5032965;28;20240;-43
2023/08/08 08:07:44;;;;;;;6.82;1.10;;;;;;;;;;5034747;28;20231;-41
2023/08/08 08:10:13;;;;;;;2.65;1.00;;;;;;;;;;5035287;28;20242;-41
2023/08/08 08:12:41;;;;;;;3.10;0.95;;;;;;;;;;5034526;28;20224;-41
2023/08/08 08:15:09;;;;;;;1.88;0.98;;;;;;;;;;5033396;28;20233;-42
2023/08/08 08:17:36;;;;;;;2.33;0.88;;;;;;;;;;5033762;28;20565;-41
2023/08/08 08:20:10;;;;;;;1.52;0.82;;;;;;;;;;5034024;28;20256;-42
2023/08/08 08:22:38;;;;;;;3.65;1.20;;;;;;;;;;5031230;28;20223;-45
2023/08/08 08:25:08;;;;;;;3.15;1.05;;;;;;;;;;5034232;28;20224;-41
2023/08/08 08:27:36;;;;;;;1.77;0.80;;;;;;;;;;5033936;28;20216;-41
2023/08/08 08:30:09;;;;;;;1.45;0.70;;;;;;;;;;5033414;28;20208;-42
2023/08/08 08:32:37;;;;;;;1.88;0.77;;;;;;;;;;5033493;28;20224;-40
2023/08/08 08:35:06;;;;;;;3.58;0.90;;;;;;;;;;5034426;28;20336;-42
2023/08/08 08:37:34;;;;;;;2.05;0.82;;;;;;;;;;5034488;28;20585;-40
2023/08/08 08:40:04;;;;;;;2.47;0.85;;;;;;;;;;5034347;28;20572;-41
2023/08/08 08:42:33;;;;;;;2.03;1.30;;;;;;;;;;5034068;28;20224;-42
2023/08/08 08:45:01;;;;;;;1.98;1.08;;;;;;;;;;5034160;28;20233;-41
2023/08/08 08:47:30;;;;;;;1.00;0.90;;;;;;;;;;5033763;28;20247;-41
2023/08/08 08:49:58;;;;;;;3.58;1.63;;;;;;;;;;5033845;28;20569;-41
2023/08/08 08:52:25;;;;;;;3.05;2.15;;;;;;;;;;5033381;28;20221;-41
2023/08/08 08:54:53;;;;;;;7.35;3.08;;;;;;;;;;5033863;28;20236;-41
2023/08/08 08:57:23;;;;;;;6.50;2.92;;;;;;;;;;5034075;28;20728;-41
2023/08/08 08:59:51;;;;;;;4.85;2.97;;;;;;;;;;5033687;28;20625;-41
2023/08/08 09:02:19;;;;;;;4.78;3.83;;;;;;;;;;5033630;28;20224;-42
2023/08/08 09:04:46;;;;;;;5.15;3.70;;;;;;;;;;5032734;28;20723;-42
2023/08/08 09:07:14;;;;;;;4.90;2.67;;;;;;;;;;5032417;28;20224;-41
2023/08/08 09:09:44;;;;;;;6.55;2.80;;;;;;;;;;5032721;28;20239;-43
2023/08/08 09:12:15;;;;;;;4.38;2.53;;;;;;;;;;5034096;28;20220;-41
2023/08/08 09:14:43;;;;;;;3.47;2.60;;;;;;;;;;5033339;28;20715;-41
2023/08/08 09:17:13;;;;;;;4.85;3.10;;;;;;;;;;5033209;28;20228;-41
2023/08/08 09:19:44;;;;;;;5.63;2.72;;;;;;;;;;5033297;28;20255;-42
2023/08/08 09:22:13;;;;;;;6.90;3.30;;;;;;;;;;5034041;28;20228;-42
2023/08/08 09:24:40;;;;;;;6.63;3.10;;;;;;;;;;5033263;28;20242;-41
2023/08/08 09:27:09;;;;;;;5.20;2.80;;;;;;;;;;5033464;28;20251;-42
2023/08/08 09:29:37;;;;;;;4.70;2.35;;;;;;;;;;5030002;28;20240;-41
2023/08/08 09:32:06;;;;;;;5.47;2.30;;;;;;;;;;5028857;28;20213;-42
2023/08/08 09:34:33;;;;;;;3.28;1.95;;;;;;;;;;5031131;28;20235;-42
2023/08/08 09:37:02;;;;;;;5.20;2.10;;;;;;;;;;5032571;28;20212;-42
2023/08/08 09:39:29;;;;;;;1.75;1.58;;;;;;;;;;5032064;28;20694;-43
2023/08/08 09:41:57;;;;;;;5.68;2.05;;;;;;;;;;5032177;28;20217;-43
2023/08/08 09:44:26;;;;;;;5.45;1.60;;;;;;;;;;5031772;28;20248;-43
2023/08/08 09:46:55;;;;;;;1.52;1.33;;;;;;;;;;5031488;28;20224;-44
2023/08/08 09:49:23;;;;;;;3.92;1.40;;;;;;;;;;5032133;28;20240;-43
2023/08/08 09:51:50;;;;;;;2.80;1.52;;;;;;;;;;5031750;28;20231;-42
2023/08/08 09:54:18;;;;;;;5.05;1.13;;;;;;;;;;5031247;28;20251;-42
2023/08/08 09:56:45;;;;;;;4.13;1.35;;;;;;;;;;5029068;28;20231;-44
2023/08/08 09:59:13;;;;;;;2.72;1.50;;;;;;;;;;5032000;28;20221;-42
2023/08/08 10:01:41;;;;;;;1.65;0.90;;;;;;;;;;5031105;28;20631;-44
2023/08/08 10:04:12;;;;;;;5.72;1.20;;;;;;;;;;5031541;28;20620;-41
2023/08/08 10:06:39;;;;;;;5.68;1.33;;;;;;;;;;5031787;28;20239;-41
2023/08/08 10:09:07;;;;;;;3.13;0.98;;;;;;;;;;5031856;28;20730;-42
2023/08/08 10:11:34;;;;;;;1.92;1.17;;;;;;;;;;5030408;28;20231;-42
2023/08/08 10:14:02;;;;;;;1.60;1.00;;;;;;;;;;5030992;28;20723;-43
2023/08/08 10:16:33;;;;;;;3.75;1.17;;;;;;;;;;5031451;28;20294;-42
2023/08/08 10:19:03;;;;;;;2.03;1.10;;;;;;;;;;5032525;28;20216;-43
2023/08/08 10:21:34;;;;;;;2.15;0.90;;;;;;;;;;5031672;28;20227;-43
2023/08/08 10:24:07;;;;;;;1.52;0.88;;;;;;;;;;5032143;28;20749;-43
2023/08/08 10:26:52;;;;;;;1.85;0.98;;;;;;;;;;5031672;28;20231;-42
2023/08/08 10:29:19;;;;;;;1.23;0.73;;;;;;;;;;5031483;28;20216;-41
2023/08/08 10:31:58;;;;;;;1.77;0.80;;;;;;;;;;5030768;28;20221;-43
2023/08/08 10:34:46;;;;;;;1.83;0.70;;;;;;;;;;5030097;28;20574;-41
2023/08/08 10:37:19;;;;;;;2.15;0.90;;;;;;;;;;5031906;28;20189;-42
2023/08/08 10:39:54;;;;;;;1.73;0.73;;;;;;;;;;5032864;28;20213;-42
2023/08/08 10:42:23;;;;;;;1.20;0.85;;;;;;;;;;5033064;28;20275;-42
2023/08/08 10:44:58;;;;;;;1.95;0.75;;;;;;;;;;5032722;28;20291;-41
2023/08/08 10:47:27;;;;;;;1.20;0.77;;;;;;;;;;5032435;28;20193;-44
2023/08/08 10:50:07;;;;;;;1.50;0.80;;;;;;;;;;5031187;28;20614;-42
2023/08/08 10:52:54;;;;;;;1.60;0.95;;;;;;;;;;5034742;28;20193;-44
2023/08/08 10:55:23;;;;;;;1.60;0.70;;;;;;;;;;5036469;28;20247;-44
2023/08/08 10:57:59;;;;;;;2.47;0.65;;;;;;;;;;5036427;28;20669;-44
2023/08/08 11:00:30;;;;;;;1.80;0.75;;;;;;;;;;5031013;28;20196;-44
2023/08/08 11:02:59;;;;;;;2.70;0.80;;;;;;;;;;5030240;28;20212;-43
2023/08/08 11:05:29;;;;;;;2.33;0.70;;;;;;;;;;5035036;28;20228;-44
2023/08/08 11:07:57;;;;;;;1.70;1.00;;;;;;;;;;5035559;28;20221;-43
2023/08/08 11:10:24;;;;;;;1.52;0.60;;;;;;;;;;5035163;28;20320;-44
2023/08/08 11:12:58;;;;;;;2.22;0.75;;;;;;;;;;5035132;28;20228;-44
2023/08/08 11:15:26;;;;;;;1.40;0.85;;;;;;;;;;5035746;28;20736;-43
2023/08/08 11:17:58;;;;;;;3.00;1.08;;;;;;;;;;5036065;28;20735;-44
2023/08/08 11:20:29;;;;;;;1.90;0.50;;;;;;;;;;5036448;28;20209;-44
2023/08/08 11:22:57;;;;;;;2.15;0.82;;;;;;;;;;5035475;28;20247;-44
2023/08/08 11:25:29;;;;;;;1.75;0.70;;;;;;;;;;5035943;28;20254;-44
2023/08/08 11:27:58;;;;;;;2.92;0.68;;;;;;;;;;5035832;28;20186;-44
2023/08/08 11:30:29;;;;;;;2.40;0.95;;;;;;;;;;5029416;28;20248;-44
2023/08/08 11:32:57;;;;;;;5.93;0.88;;;;;;;;;;5033579;28;20237;-44
2023/08/08 11:35:27;;;;;;;2.28;0.90;;;;;;;;;;5033596;28;20733;-44
2023/08/08 11:37:57;;;;;;;1.67;0.65;;;;;;;;;;5033522;28;20217;-43
2023/08/08 11:40:27;;;;;;;2.08;0.80;;;;;;;;;;5033114;28;20217;-46
2023/08/08 11:42:56;;;;;;;3.08;1.02;;;;;;;;;;5032097;28;20224;-44
2023/08/08 11:45:24;;;;;;;2.13;1.20;;;;;;;;;;5032267;28;20693;-44
2023/08/08 11:47:54;;;;;;;5.32;1.00;;;;;;;;;;5034119;28;20217;-44
2023/08/08 11:50:24;;;;;;;3.08;0.93;;;;;;;;;;5034216;28;20696;-43
2023/08/08 11:52:53;;;;;;;3.45;0.90;;;;;;;;;;5034923;28;20213;-44
2023/08/08 11:55:26;;;;;;;2.38;1.20;;;;;;;;;;5034660;28;21881;-44
2023/08/08 11:58:02;;;;;;;3.95;0.85;;;;;;;;;;5035084;28;20702;-45
2023/08/08 12:00:30;;;;;;;3.15;0.93;;;;;;;;;;5033674;28;20241;-44
2023/08/08 12:02:58;;;;;;;5.18;0.93;;;;;;;;;;5033352;28;20271;-45
2023/08/08 12:05:26;;;;;;;3.75;0.70;;;;;;;;;;5034151;28;20392;-41
2023/08/08 12:07:54;;;;;;;4.82;0.70;;;;;;;;;;5035754;28;20254;-41
2023/08/08 12:10:22;;;;;;;1.08;0.70;;;;;;;;;;5035126;28;20197;-44
2023/08/08 12:12:55;;;;;;;1.58;0.60;;;;;;;;;;5035070;28;20208;-42
2023/08/08 12:15:22;;;;;;;3.85;0.90;;;;;;;;;;5035116;28;20701;-41
2023/08/08 12:17:49;;;;;;;1.83;0.80;;;;;;;;;;5035699;28;20208;-41
2023/08/08 12:20:17;;;;;;;2.70;0.88;;;;;;;;;;5035622;28;20205;-43
2023/08/08 12:22:45;;;;;;;1.95;0.90;;;;;;;;;;5035473;28;20768;-41
2023/08/08 12:25:12;;;;;;;1.55;0.93;;;;;;;;;;5034272;28;20712;-42
2023/08/08 12:27:40;;;;;;;4.22;1.10;;;;;;;;;;5030068;28;20236;-41
2023/08/08 12:30:08;;;;;;;1.60;1.00;;;;;;;;;;5034915;28;20637;-42
2023/08/08 12:32:35;;;;;;;3.75;1.10;;;;;;;;;;5034019;28;20220;-41
2023/08/08 12:35:03;;;;;;;0.80;0.68;;;;;;;;;;5034563;28;20253;-42
2023/08/08 12:37:30;;;;;;;3.58;1.02;;;;;;;;;;5034065;28;20585;-41
2023/08/08 12:39:57;;;;;;;1.20;0.82;;;;;;;;;;5034266;28;20343;-44
2023/08/08 12:42:25;;;;;;;3.38;0.80;;;;;;;;;;5033826;28;20231;-42
2023/08/08 12:44:53;;;;;;;1.17;0.85;;;;;;;;;;5034504;28;20231;-41
2023/08/08 12:47:21;;;;;;;1.42;0.85;;;;;;;;;;5034013;28;20220;-41
2023/08/08 12:49:48;;;;;;;1.08;0.90;;;;;;;;;;5034042;28;20693;-42
2023/08/08 12:52:15;;;;;;;2.15;1.10;;;;;;;;;;5034230;28;20231;-42
2023/08/08 12:54:42;;;;;;;5.03;1.10;;;;;;;;;;5029370;28;20224;-41
2023/08/08 12:57:09;;;;;;;2.38;0.85;;;;;;;;;;5028347;28;20230;-44
2023/08/08 12:59:36;;;;;;;1.92;1.00;;;;;;;;;;5033725;28;20282;-45
2023/08/08 13:02:04;;;;;;;2.58;0.90;;;;;;;;;;5033728;28;20231;-44
2023/08/08 13:04:31;;;;;;;1.92;1.00;;;;;;;;;;5033164;28;20225;-44
2023/08/08 13:06:59;;;;;;;3.67;1.15;;;;;;;;;;5033539;28;20306;-45
2023/08/08 13:09:26;;;;;;;3.28;1.17;;;;;;;;;;5033400;28;20312;-44
2023/08/08 13:11:53;;;;;;;2.60;0.90;;;;;;;;;;5032570;28;20228;-44
2023/08/08 13:14:20;;;;;;;4.00;0.88;;;;;;;;;;5032949;28;20312;-44
2023/08/08 13:16:48;;;;;;;3.85;1.52;;;;;;;;;;5032978;28;20237;-45
2023/08/08 13:19:19;;;;;;;4.40;0.80;;;;;;;;;;5032830;28;20220;-44
2023/08/08 13:21:47;;;;;;;3.28;0.75;;;;;;;;;;5033016;28;20229;-44
2023/08/08 13:24:13;;;;;;;1.67;0.77;;;;;;;;;;5032886;28;20656;-44
2023/08/08 13:26:41;;;;;;;2.63;0.73;;;;;;;;;;5012860;28;20229;-44
2023/08/08 13:29:08;;;;;;;5.32;0.80;;;;;;;;;;5020806;28;20246;-44
2023/08/08 13:31:36;;;;;;;2.22;0.70;;;;;;;;;;5032966;28;20216;-44
2023/08/08 13:34:03;;;;;;;1.20;0.50;;;;;;;;;;5032434;28;20694;-44
2023/08/08 13:36:30;;;;;;;1.98;0.60;;;;;;;;;;5032660;28;20581;-44
2023/08/08 13:38:58;;;;;;;1.30;0.60;;;;;;;;;;5032758;28;20239;-44
2023/08/08 13:41:25;;;;;;;2.80;0.93;;;;;;;;;;5031958;28;20270;-44
2023/08/08 13:43:52;;;;;;;6.43;0.80;;;;;;;;;;5032536;28;20221;-45
2023/08/08 13:46:19;;;;;;;17.95;1.20;;;;;;;;;;5032025;28;20709;-44
2023/08/08 13:48:47;;;;;;;2.28;0.65;;;;;;;;;;5032720;28;20221;-42
2023/08/08 13:51:14;;;;;;;0.77;0.40;;;;;;;;;;5032589;28;20237;-44
2023/08/08 13:53:41;;;;;;;1.00;0.50;;;;;;;;;;5013820;28;20323;-43
2023/08/08 13:56:10;;;;;;;0.80;0.50;;;;;;;;;;5032099;28;20240;-42
2023/08/08 13:58:37;;;;;;;2.17;0.90;;;;;;;;;;5032125;28;20231;-43
2023/08/08 14:01:04;;;;;;;0.95;0.50;;;;;;;;;;5032310;28;20225;-42
2023/08/08 14:03:32;;;;;;;2.53;0.80;;;;;;;;;;5032448;28;20569;-42
2023/08/08 14:05:59;;;;;;;7.97;0.75;;;;;;;;;;5031840;28;20232;-41
2023/08/08 14:08:26;;;;;;;0.82;0.57;;;;;;;;;;5032595;28;20225;-43
2023/08/08 14:10:54;;;;;;;5.32;0.75;;;;;;;;;;5031517;28;20647;-41
2023/08/08 14:13:21;;;;;;;2.90;0.80;;;;;;;;;;5032031;28;20351;-43
2023/08/08 14:15:49;;;;;;;4.00;0.50;;;;;;;;;;5031752;28;20235;-43
2023/08/08 14:18:16;;;;;;;1.55;0.70;;;;;;;;;;5032354;28;20256;-43
2023/08/08 14:20:43;;;;;;;0.60;0.40;;;;;;;;;;5032213;28;20213;-43
2023/08/08 14:23:10;;;;;;;1.33;0.82;;;;;;;;;;5031795;28;20274;-43
2023/08/08 14:25:37;;;;;;;4.95;0.80;;;;;;;;;;5031428;28;20231;-43
2023/08/08 14:28:04;;;;;;;2.45;0.93;;;;;;;;;;5030950;28;20220;-43
2023/08/08 14:30:32;;;;;;;10.07;1.00;;;;;;;;;;5032512;28;20276;-43
2023/08/08 14:32:59;;;;;;;11.90;1.55;;;;;;;;;;5032610;28;20239;-43
2023/08/08 14:35:27;;;;;;;11.70;1.25;;;;;;;;;;5031312;28;20243;-43
2023/08/08 14:37:55;;;;;;;1.13;0.60;;;;;;;;;;5030988;28;20637;-43
2023/08/08 14:40:22;;;;;;;1.05;0.60;;;;;;;;;;5031861;28;20220;-43
2023/08/08 14:42:49;;;;;;;1.52;0.60;;;;;;;;;;5012311;28;20246;-43
2023/08/08 14:45:18;;;;;;;1.13;0.55;;;;;;;;;;5016347;28;20227;-43
2023/08/08 14:47:45;;;;;;;3.22;0.93;;;;;;;;;;5031685;28;20227;-43
2023/08/08 14:50:13;;;;;;;1.70;0.90;;;;;;;;;;5032128;28;20219;-44